| Date | Time | Temp. (oF) | Dew Point (oF) | Rel. Hum. (%) | Press. (in.) | Wind Dir. | Wind Speed (mph) | Hourly Rainfall (in.) |
|
|---|---|---|---|---|---|---|---|---|---|
| 1 | 11/07 | 00:00 | 60 | 59 | 98 | 29.93 | NNW | 4 | 0.00 |
| 2 | 11/06 | 23:00 | 61 | 60 | 97 | 29.93 | N | 3 | 0.00 |
| 3 | 11/06 | 22:00 | 61 | 59 | 96 | 29.94 | NNE | 5 | 0.00 |
| 4 | 11/06 | 21:00 | 62 | 61 | 97 | 29.93 | NNE | 6 | 0.00 |
| 5 | 11/06 | 20:00 | 61 | 60 | 98 | 29.93 | NNE | 5 | 0.00 |
| 6 | 11/06 | 19:00 | 61 | 60 | 100 | 29.93 | N | 5 | 0.01 |
| 7 | 11/06 | 18:00 | 63 | 61 | 95 | 29.93 | N | 9 | 0.00 |
| 8 | 11/06 | 17:00 | 63 | 61 | 96 | 29.91 | N | 4 | 0.00 |
| 9 | 11/06 | 16:00 | 63 | 61 | 95 | 29.90 | NNE | 3 | 0.00 |
| 10 | 11/06 | 15:00 | 66 | 61 | 84 | 29.89 | NNE | 13 | 0.00 |
| 11 | 11/06 | 14:00 | 66 | 60 | 83 | 29.88 | NE | 8 | 0.00 |
| 12 | 11/06 | 13:00 | 65 | 60 | 85 | 29.88 | ENE | 10 | 0.00 |
| 13 | 11/06 | 12:00 | 65 | 60 | 85 | 29.89 | NE | 11 | 0.00 |
| 14 | 11/06 | 11:00 | 63 | 60 | 90 | 29.91 | NNE | 10 | 0.00 |
| 15 | 11/06 | 10:00 | 60 | 59 | 98 | 29.91 | NW | 4 | 0.00 |
| 16 | 11/06 | 09:00 | 60 | 58 | 95 | 29.92 | NNW | 6 | 0.00 |
| 17 | 11/06 | 08:00 | 61 | 57 | 89 | 29.91 | NNE | 9 | 0.00 |
| 18 | 11/06 | 07:00 | 61 | 57 | 89 | 29.90 | NNW | 4 | 0.00 |
| 19 | 11/06 | 06:00 | 60 | 57 | 91 | 29.89 | N | 5 | 0.00 |
| 20 | 11/06 | 05:00 | 59 | 56 | 92 | 29.88 | NNE | 12 | 0.00 |
| 21 | 11/06 | 04:00 | 58 | 55 | 90 | 29.88 | N | 5 | 0.00 |
| 22 | 11/06 | 03:00 | 58 | 53 | 86 | 29.88 | NNW | 10 | 0.00 |
| 23 | 11/06 | 02:00 | 58 | 54 | 88 | 29.90 | NNE | 10 | 0.02 |
| 24 | 11/06 | 01:00 | 58 | 54 | 88 | 29.92 | NE | 11 | 0.00 |